Time;durP1;ratioP1;P1;durP2;ratioP2;P2;SDS_P1;SDS_P2;PMS_P1;PMS_P2;Temp;Humidity;BMP_temperature;BMP_pressure;BME280_temperature;BME280_humidity;BME280_pressure;Samples;Min_cycle;Max_cycle;Signal;HPM_P1;HPM_P2
2021/03/28 00:01:04;;;;;;;520.77;149.13;;;;;;;-144.99;95.52;52386.94;5048790;28;20648;-73
2021/03/28 00:03:35;;;;;;;526.80;149.65;;;;;;;-144.99;95.67;52350.25;5049948;28;20644;-73
2021/03/28 00:06:17;;;;;;;524.90;145.18;;;;;;;-144.99;95.73;52354.34;5046994;28;20205;-73
2021/03/28 00:08:45;;;;;;;520.10;140.27;;;;;;;-144.99;95.86;52348.22;5047465;28;20240;-74
2021/03/28 00:11:16;;;;;;;519.17;145.30;;;;;;;-144.99;95.73;52370.63;5048954;28;20988;-73
2021/03/28 00:13:47;;;;;;;525.00;146.13;;;;;;;-144.99;95.80;52366.56;5049440;28;20638;-73
2021/03/28 00:16:15;;;;;;;525.08;148.10;;;;;;;-144.99;95.69;52338.03;5046566;28;20205;-73
2021/03/28 00:18:56;;;;;;;521.25;145.73;;;;;;;-144.99;95.55;52336.00;5044149;28;20248;-73
2021/03/28 00:21:25;;;;;;;520.67;149.32;;;;;;;-144.99;95.60;52342.09;5041000;28;20236;-73
2021/03/28 00:23:54;;;;;;;521.60;146.05;;;;;;;-144.99;95.54;52350.25;5034042;28;20230;-73
2021/03/28 00:26:26;;;;;;;524.83;140.30;;;;;;;-144.99;95.42;52333.94;5042753;28;20652;-74
2021/03/28 00:29:05;;;;;;;519.35;143.98;;;;;;;-144.99;95.13;52358.41;5050434;28;20523;-73
2021/03/28 00:31:34;;;;;;;518.75;136.43;;;;;;;-144.99;95.35;52358.41;5048604;28;20213;-73
2021/03/28 00:34:20;;;;;;;519.60;143.95;;;;;;;-144.99;95.37;52380.84;5047552;28;20209;-75
2021/03/28 00:36:49;;;;;;;520.88;144.40;;;;;;;-144.99;95.27;52378.78;5049631;28;20216;-74
2021/03/28 00:39:30;;;;;;;522.20;145.93;;;;;;;-144.99;95.28;52333.94;5056813;28;20378;-74
2021/03/28 00:42:00;;;;;;;522.93;144.43;;;;;;;-144.99;95.02;52350.25;5084144;22;21267;-75
2021/03/28 00:44:27;;;;;;;528.88;150.80;;;;;;;-144.99;95.00;52374.72;5053227;28;20674;-73
2021/03/28 00:46:58;;;;;;;524.03;145.20;;;;;;;-144.99;95.11;52354.34;5070858;28;20195;-77
2021/03/28 00:49:30;;;;;;;519.95;141.52;;;;;;;-144.99;94.91;52382.88;5084744;28;20834;-76
2021/03/28 00:52:01;;;;;;;522.77;148.30;;;;;;;-144.99;94.54;52391.03;5066361;28;20210;-78
2021/03/28 00:54:41;;;;;;;522.95;145.68;;;;;;;-144.99;94.75;52370.63;5065119;28;20619;-78
2021/03/28 00:57:20;;;;;;;519.83;138.13;;;;;;;-144.99;94.58;52370.63;5074728;28;20196;-77
2021/03/28 00:59:53;;;;;;;522.00;139.40;;;;;;;-144.99;94.56;52358.41;5074735;28;20634;-77
2021/03/28 01:02:27;;;;;;;524.75;138.98;;;;;;;-144.99;94.38;52358.41;5075113;28;20223;-77
2021/03/28 01:05:22;;;;;;;518.45;137.43;;;;;;;-144.99;94.31;52321.72;5067811;28;20208;-78
2021/03/28 01:08:00;;;;;;;518.65;141.50;;;;;;;-144.99;94.27;52350.25;5069956;28;20193;-77
2021/03/28 01:11:02;;;;;;;517.78;144.43;;;;;;;-144.99;94.15;52342.09;5071738;28;20209;-78
2021/03/28 01:14:07;;;;;;;519.88;138.13;;;;;;;-144.99;94.17;52338.03;5063649;28;20212;-77
2021/03/28 01:17:01;;;;;;;519.03;140.55;;;;;;;-144.99;94.06;52350.25;5072186;28;20639;-75
2021/03/28 01:19:52;;;;;;;517.83;136.87;;;;;;;-144.99;93.95;52346.19;5071918;28;20207;-76
2021/03/28 01:22:24;;;;;;;521.80;144.20;;;;;;;-144.99;93.94;52342.09;5062430;28;20671;-76
2021/03/28 01:24:59;;;;;;;518.83;141.65;;;;;;;-144.99;93.66;52370.63;5060794;28;20228;-77
2021/03/28 01:27:30;;;;;;;523.63;140.88;;;;;;;-144.99;93.71;52325.81;5061374;28;20561;-78
2021/03/28 01:30:08;;;;;;;519.72;144.15;;;;;;;-144.99;93.79;52329.88;5071637;28;20201;-76
2021/03/28 01:32:39;;;;;;;519.55;139.75;;;;;;;-144.99;93.82;52366.56;5071136;28;20223;-77
2021/03/28 01:35:19;;;;;;;524.88;134.77;;;;;;;-144.99;93.81;52386.94;5071011;28;20192;-76
2021/03/28 01:37:49;;;;;;;518.65;135.43;;;;;;;-144.99;93.63;52391.03;5072417;28;20212;-75
2021/03/28 01:40:22;;;;;;;523.10;138.33;;;;;;;-144.99;93.60;52366.56;5072256;28;20197;-77
2021/03/28 01:43:09;;;;;;;524.50;148.82;;;;;;;-144.99;93.53;52338.03;5061316;28;20611;-76
2021/03/28 01:45:45;;;;;;;517.53;143.25;;;;;;;-144.99;93.59;52321.72;5069165;28;20262;-76
2021/03/28 01:48:37;;;;;;;519.58;145.00;;;;;;;-144.99;93.62;52366.56;5071606;28;20204;-77
2021/03/28 01:51:27;;;;;;;516.92;138.63;;;;;;;-144.99;93.85;52366.56;5070983;28;20278;-77
2021/03/28 01:54:01;;;;;;;517.97;135.77;;;;;;;-144.99;93.76;52338.03;5064661;28;20198;-75
2021/03/28 01:56:34;;;;;;;515.00;137.25;;;;;;;-144.99;94.03;52360.44;5061621;28;20263;-75
2021/03/28 01:59:12;;;;;;;522.38;143.20;;;;;;;-144.99;94.01;52301.34;5070025;28;20643;-75
2021/03/28 02:01:44;;;;;;;521.72;139.35;;;;;;;-144.99;93.73;52309.50;5070045;28;20213;-76
2021/03/28 02:04:23;;;;;;;516.63;143.30;;;;;;;-144.99;93.68;52338.03;5061664;28;20721;-75
2021/03/28 02:07:07;;;;;;;515.83;139.15;;;;;;;-144.99;93.71;52368.59;5071207;28;20208;-74
2021/03/28 02:09:49;;;;;;;518.72;141.27;;;;;;;-144.99;93.91;52391.03;5071974;28;20200;-75
2021/03/28 02:12:20;;;;;;;516.80;137.65;;;;;;;-144.99;93.73;52342.09;5071751;28;20231;-76
2021/03/28 02:15:23;;;;;;;518.42;136.25;;;;;;;-144.99;93.97;52323.75;5070259;28;20223;-77
2021/03/28 02:17:57;;;;;;;520.22;136.13;;;;;;;-144.99;93.88;52325.81;5063497;28;20193;-75
2021/03/28 02:20:40;;;;;;;522.08;136.52;;;;;;;-144.99;93.81;52360.44;5070732;28;20200;-76
2021/03/28 02:23:15;;;;;;;517.35;140.98;;;;;;;-144.99;93.76;52386.94;5063555;28;20277;-75
2021/03/28 02:25:50;;;;;;;519.30;136.98;;;;;;;-144.99;93.76;52350.25;5062388;28;20204;-75
2021/03/28 02:28:27;;;;;;;520.05;134.98;;;;;;;-144.99;93.85;52325.81;5071236;28;20666;-76
2021/03/28 02:30:58;;;;;;;517.30;136.27;;;;;;;-144.99;93.97;52329.88;5082625;28;20285;-75
2021/03/28 02:33:27;;;;;;;520.53;143.18;;;;;;;-144.99;93.75;52354.34;5070385;28;20209;-75
2021/03/28 02:35:59;;;;;;;515.53;137.10;;;;;;;-144.99;93.64;52329.88;5070671;28;20212;-75
2021/03/28 02:38:48;;;;;;;519.25;138.38;;;;;;;-144.99;93.78;52386.94;5072424;28;20193;-74
2021/03/28 02:41:21;;;;;;;516.90;134.48;;;;;;;-144.99;93.72;52393.06;5071482;28;20370;-74
2021/03/28 02:43:50;;;;;;;518.38;134.73;;;;;;;-144.99;93.97;52338.03;5071620;28;20217;-74
2021/03/28 02:46:35;;;;;;;518.90;141.00;;;;;;;-144.99;93.88;52358.41;5071080;28;20201;-74
2021/03/28 02:49:26;;;;;;;520.10;138.70;;;;;;;-144.99;94.32;52346.19;5071305;28;20215;-75
2021/03/28 02:52:17;;;;;;;521.70;132.43;;;;;;;-144.99;94.24;52354.34;5064504;28;20656;-76
2021/03/28 02:55:07;;;;;;;522.20;140.05;;;;;;;-144.99;94.34;52370.63;5055833;28;20257;-75
2021/03/28 02:57:53;;;;;;;518.33;134.73;;;;;;;-144.99;94.52;52362.50;5064441;28;20600;-77
2021/03/28 03:00:29;;;;;;;515.35;131.48;;;;;;;-144.99;94.34;52358.41;5070439;28;20205;-77
2021/03/28 03:03:06;;;;;;;514.53;136.30;;;;;;;-144.99;94.34;52331.91;5063035;28;20209;-77
2021/03/28 03:05:51;;;;;;;516.78;141.40;;;;;;;-144.99;94.39;52333.94;5057570;28;20216;-77
2021/03/28 03:08:25;;;;;;;514.67;137.80;;;;;;;-144.99;94.36;52370.63;5067830;28;20204;-78
2021/03/28 03:11:09;;;;;;;515.70;140.32;;;;;;;-144.99;94.25;52372.69;5070051;28;20224;-76
2021/03/28 03:14:00;;;;;;;513.58;134.07;;;;;;;-144.99;94.11;52364.53;5070353;28;20204;-77
2021/03/28 03:16:38;;;;;;;512.08;130.93;;;;;;;-144.99;94.04;52325.81;5055922;28;20606;-76
2021/03/28 03:19:30;;;;;;;515.58;138.00;;;;;;;-144.99;94.02;52342.09;5065690;28;20612;-76
2021/03/28 03:22:28;;;;;;;515.92;132.43;;;;;;;-144.99;93.94;52370.63;5058925;28;20220;-77
2021/03/28 03:25:24;;;;;;;514.92;136.52;;;;;;;-144.99;93.95;52333.94;5064850;28;20224;-77
2021/03/28 03:28:28;;;;;;;516.83;136.35;;;;;;;-144.99;93.92;52319.69;5062931;28;20198;-77
2021/03/28 03:31:21;;;;;;;510.98;133.57;;;;;;;-144.99;93.82;52378.78;5064918;28;20265;-77
2021/03/28 03:34:15;;;;;;;511.60;132.73;;;;;;;-144.99;93.51;52366.56;5057167;28;20204;-77
2021/03/28 03:37:08;;;;;;;518.55;135.35;;;;;;;-144.99;93.38;52362.50;5062389;28;20629;-73
2021/03/28 03:40:02;;;;;;;512.63;136.40;;;;;;;-144.99;93.31;52329.88;5059047;28;20729;-74
2021/03/28 03:43:01;;;;;;;513.60;136.98;;;;;;;-144.99;93.16;52333.94;5070329;28;20292;-74
2021/03/28 03:45:50;;;;;;;518.25;138.15;;;;;;;-144.99;92.98;52378.78;5068988;28;20718;-72
2021/03/28 03:48:24;;;;;;;517.90;137.30;;;;;;;-144.99;92.92;52366.56;5064969;28;20283;-75
2021/03/28 03:51:27;;;;;;;515.95;136.82;;;;;;;-144.99;92.58;52342.09;5064497;28;20718;-74
2021/03/28 03:54:02;;;;;;;512.22;136.30;;;;;;;-144.99;92.33;52350.25;5049997;28;20266;-72
2021/03/28 03:56:40;;;;;;;516.58;132.80;;;;;;;-144.99;92.08;52378.78;5063570;28;20206;-72
2021/03/28 03:59:16;;;;;;;520.92;140.13;;;;;;;-144.99;91.98;52338.03;5064458;28;20262;-73
2021/03/28 04:01:56;;;;;;;515.03;132.65;;;;;;;-144.99;91.84;52358.41;5068389;28;20272;-75
2021/03/28 04:04:31;;;;;;;513.97;141.50;;;;;;;-144.99;91.80;52391.03;5068980;28;20216;-75
2021/03/28 04:07:24;;;;;;;515.53;144.85;;;;;;;-144.99;91.54;52354.34;5062977;28;20209;-73
2021/03/28 04:10:06;;;;;;;515.38;137.02;;;;;;;-144.99;91.12;52366.56;5044287;28;20206;-76
2021/03/28 04:12:52;;;;;;;520.38;146.02;;;;;;;-144.99;90.50;52382.88;5057022;28;20224;-73
2021/03/28 04:15:38;;;;;;;515.67;136.97;;;;;;;-144.99;90.20;52350.25;5069152;28;20228;-75
2021/03/28 04:18:22;;;;;;;515.85;142.18;;;;;;;-144.99;90.26;52346.19;5060100;28;20673;-75
2021/03/28 04:20:54;;;;;;;518.13;141.87;;;;;;;-144.99;90.30;52338.03;5059135;28;20632;-75
2021/03/28 04:23:36;;;;;;;523.00;135.47;;;;;;;-144.99;90.31;52307.47;5072684;28;20988;-75
2021/03/28 04:26:24;;;;;;;522.67;143.20;;;;;;;-144.99;90.22;52366.56;5071566;28;21174;-78
2021/03/28 04:28:53;;;;;;;518.23;138.60;;;;;;;-144.99;90.23;52338.03;5067353;28;20703;-75
2021/03/28 04:31:37;;;;;;;519.13;141.50;;;;;;;-144.99;90.35;52362.50;5073275;28;20643;-75
2021/03/28 04:34:08;;;;;;;515.55;135.43;;;;;;;-144.99;89.88;52362.50;5075696;28;20618;-75
2021/03/28 04:36:41;;;;;;;514.33;144.27;;;;;;;-144.99;89.49;52342.09;5074876;28;20201;-75
2021/03/28 04:39:43;;;;;;;514.23;136.67;;;;;;;-144.99;89.52;52331.91;5071070;28;20630;-76
2021/03/28 04:42:40;;;;;;;515.47;143.07;;;;;;;-144.99;89.21;52370.63;5062874;28;20665;-76
2021/03/28 04:45:41;;;;;;;516.03;141.48;;;;;;;-144.99;89.09;52358.41;5044091;28;20274;-76
2021/03/28 04:48:31;;;;;;;518.57;141.10;;;;;;;-144.99;88.95;52399.19;5063385;28;20221;-77
2021/03/28 04:51:19;;;;;;;519.17;146.20;;;;;;;-144.99;88.98;52362.50;5070077;28;20669;-76
2021/03/28 04:54:17;;;;;;;521.53;139.93;;;;;;;-144.99;89.00;52321.72;5072521;28;20299;-77
2021/03/28 04:57:01;;;;;;;519.87;145.10;;;;;;;-144.99;88.86;52366.56;5077497;28;20203;-78
2021/03/28 05:00:04;;;;;;;519.20;142.87;;;;;;;-144.99;88.92;52374.72;5077471;28;20694;-76
2021/03/28 05:02:57;;;;;;;517.20;139.25;;;;;;;-144.99;88.92;52344.16;5079476;28;21234;-77
2021/03/28 05:05:50;;;;;;;513.30;139.17;;;;;;;-144.99;88.72;52380.84;5077579;28;20650;-76
2021/03/28 05:08:56;;;;;;;518.90;141.90;;;;;;;-144.99;88.67;52336.00;5077949;28;20972;-76
2021/03/28 05:12:16;;;;;;;515.27;137.40;;;;;;;-144.99;88.39;52376.75;5073944;28;20974;-76
2021/03/28 05:15:15;;;;;;;517.70;144.63;;;;;;;-144.99;88.61;52346.19;4992535;28;20641;-77
2021/03/28 05:18:16;;;;;;;522.20;139.57;;;;;;;-144.99;88.37;52374.72;5070774;28;20209;-76
2021/03/28 05:21:24;;;;;;;512.78;135.43;;;;;;;-144.99;88.13;52362.50;5064140;28;20223;-76
2021/03/28 05:24:31;;;;;;;513.88;143.07;;;;;;;-144.99;88.18;52354.34;5066862;28;20196;-76
2021/03/28 05:27:25;;;;;;;513.78;139.65;;;;;;;-144.99;88.13;52358.41;5068937;28;20679;-76
2021/03/28 05:30:16;;;;;;;513.05;143.88;;;;;;;-144.99;88.15;52368.59;5069225;28;20209;-76
2021/03/28 05:33:03;;;;;;;514.72;142.02;;;;;;;-144.99;87.81;52366.56;5073333;28;20203;-76
2021/03/28 05:35:47;;;;;;;518.65;139.70;;;;;;;-144.99;88.02;52342.09;5071771;28;20196;-76
2021/03/28 05:38:31;;;;;;;520.03;145.30;;;;;;;-144.99;87.83;52364.53;5065507;28;20207;-76
2021/03/28 05:41:27;;;;;;;514.53;142.57;;;;;;;-144.99;87.91;52350.25;5054000;28;20737;-76
2021/03/28 05:44:14;;;;;;;515.20;141.38;;;;;;;-144.99;87.71;52350.25;5053242;28;20224;-75
2021/03/28 05:47:17;;;;;;;520.55;143.52;;;;;;;-144.99;87.57;52370.63;5056937;28;20189;-76
2021/03/28 05:49:56;;;;;;;522.22;140.68;;;;;;;-144.99;87.56;52350.25;5066362;28;20206;-75
2021/03/28 05:53:13;;;;;;;517.60;147.38;;;;;;;-144.99;87.26;52358.41;5071532;28;20225;-74
2021/03/28 05:56:19;;;;;;;518.20;144.90;;;;;;;-144.99;87.21;52342.09;5069796;28;20227;-75
2021/03/28 05:59:12;;;;;;;513.88;140.00;;;;;;;-144.99;87.02;52317.66;5071637;28;20201;-73
2021/03/28 06:01:55;;;;;;;514.42;141.95;;;;;;;-144.99;87.05;52386.94;5071863;28;20225;-73
2021/03/28 06:05:00;;;;;;;518.77;145.83;;;;;;;-144.99;86.53;52342.09;5072503;28;20579;-74
2021/03/28 06:08:12;;;;;;;516.95;148.55;;;;;;;-144.99;86.42;52333.94;5002665;28;20921;-77
2021/03/28 06:11:19;;;;;;;522.83;145.33;;;;;;;-144.99;86.12;52386.94;5064110;28;20585;-75
2021/03/28 06:14:08;;;;;;;517.55;149.75;;;;;;;-144.99;85.56;52346.19;5070735;28;20623;-76
2021/03/28 06:16:58;;;;;;;520.55;147.90;;;;;;;-144.99;85.26;52338.03;5070264;28;20205;-74
2021/03/28 06:19:52;;;;;;;519.60;147.43;;;;;;;-144.99;85.10;52338.03;5055965;28;20213;-74
2021/03/28 06:22:54;;;;;;;518.10;151.27;;;;;;;-144.99;85.14;52342.09;5059441;28;20655;-76
2021/03/28 06:25:56;;;;;;;516.50;144.60;;;;;;;-144.99;84.93;52311.53;5065408;28;20644;-76
2021/03/28 06:29:08;;;;;;;519.33;149.18;;;;;;;-144.99;84.73;52342.09;5061904;28;20730;-75
2021/03/28 06:32:05;;;;;;;516.65;147.85;;;;;;;-144.99;84.52;52358.41;5045314;28;20229;-78
2021/03/28 06:35:01;;;;;;;516.30;146.05;;;;;;;-144.99;84.63;52293.19;5071527;28;20276;-77
2021/03/28 06:38:13;;;;;;;515.38;143.18;;;;;;;-144.99;84.54;52313.56;5075727;28;20232;-79
2021/03/28 06:40:49;;;;;;;515.45;141.20;;;;;;;-144.99;84.35;52336.00;5070827;28;20231;-79
2021/03/28 06:43:41;;;;;;;518.75;148.10;;;;;;;-144.99;84.18;52354.34;5074887;28;20689;-80
2021/03/28 06:46:25;;;;;;;516.67;145.25;;;;;;;-144.99;83.96;52346.19;5075430;28;20225;-79
2021/03/28 06:49:17;;;;;;;515.67;149.20;;;;;;;-144.99;84.09;52362.50;5072525;28;20283;-77
2021/03/28 06:51:56;;;;;;;519.97;148.48;;;;;;;-144.99;83.92;52342.09;5059205;28;20213;-76
2021/03/28 06:55:02;;;;;;;517.22;153.05;;;;;;;-144.99;83.78;52338.03;5062297;28;20211;-76
2021/03/28 06:58:02;;;;;;;519.38;158.90;;;;;;;-144.99;83.67;52329.88;5044444;28;20243;-78
2021/03/28 07:00:56;;;;;;;523.13;153.23;;;;;;;-144.99;83.48;52333.94;5069657;28;21884;-77
2021/03/28 07:03:56;;;;;;;521.53;153.13;;;;;;;-144.99;83.19;52342.09;5067790;28;20651;-77
2021/03/28 07:06:28;;;;;;;521.23;152.20;;;;;;;-144.99;82.97;52374.72;5060064;28;20197;-75
2021/03/28 07:09:15;;;;;;;524.67;161.07;;;;;;;-144.99;83.17;52307.47;5069049;28;20623;-74
2021/03/28 07:11:56;;;;;;;521.63;152.15;;;;;;;-144.99;82.82;52325.81;5066637;28;20653;-76
2021/03/28 07:15:16;;;;;;;526.87;166.60;;;;;;;-144.99;82.77;52368.59;5094645;22;20248;-75
2021/03/28 07:18:09;;;;;;;524.17;150.40;;;;;;;-144.99;83.34;52327.84;5065220;28;20629;-73
2021/03/28 07:20:59;;;;;;;525.00;154.70;;;;;;;-144.99;82.46;52362.50;5066319;28;20646;-72
2021/03/28 07:23:42;;;;;;;526.15;155.00;;;;;;;-144.99;82.64;52329.88;5069083;28;21242;-73
2021/03/28 07:26:21;;;;;;;523.67;156.43;;;;;;;-144.99;82.84;52338.03;5050042;28;20304;-74
2021/03/28 07:29:42;;;;;;;520.43;158.33;;;;;;;-144.99;83.48;52272.81;5051596;28;20928;-73
2021/03/28 07:32:43;;;;;;;522.43;157.67;;;;;;;-144.99;82.18;52319.69;5049711;28;20974;-73
2021/03/28 07:35:53;;;;;;;525.60;172.23;;;;;;;-144.99;82.60;52321.72;5053143;28;20662;-74
2021/03/28 07:38:43;;;;;;;527.17;166.50;;;;;;;-144.99;81.54;52338.03;4973872;28;20639;-74
2021/03/28 07:41:46;;;;;;;530.23;168.20;;;;;;;-144.99;82.08;52338.03;5046218;28;21169;-72
2021/03/28 07:44:48;;;;;;;527.23;164.97;;;;;;;-144.99;80.90;52340.06;5018823;28;20666;-73
2021/03/28 07:47:56;;;;;;;533.00;177.43;;;;;;;-144.99;80.82;52329.88;5047527;28;20633;-73
2021/03/28 07:50:51;;;;;;;531.97;174.57;;;;;;;-144.99;80.89;52313.56;5046219;28;21173;-72
2021/03/28 07:53:32;;;;;;;536.13;177.47;;;;;;;-144.99;80.46;52333.94;5046723;28;21218;-73
2021/03/28 07:56:21;;;;;;;545.07;179.87;;;;;;;-144.99;80.81;52346.19;5047830;28;21245;-72
2021/03/28 07:59:00;;;;;;;535.77;186.13;;;;;;;-144.99;80.01;52309.50;5046082;28;20972;-72
2021/03/28 08:02:23;;;;;;;533.10;179.80;;;;;;;-144.99;79.68;52317.66;5050688;28;20623;-78
2021/03/28 08:05:19;;;;;;;533.43;174.47;;;;;;;-144.99;79.50;52338.03;5055901;28;20656;-77
2021/03/28 08:07:54;;;;;;;531.67;180.63;;;;;;;-144.99;79.22;52327.84;5053379;28;20856;-76
2021/03/28 08:10:45;;;;;;;535.37;174.77;;;;;;;-144.99;78.97;52338.03;5049893;28;20639;-77
2021/03/28 08:13:53;;;;;;;535.63;184.53;;;;;;;-144.99;78.88;52297.25;5049752;28;20658;-77
2021/03/28 08:16:56;;;;;;;532.57;185.87;;;;;;;-144.99;77.96;52268.72;5050765;28;20623;-77
2021/03/28 08:19:37;;;;;;;533.80;180.80;;;;;;;-144.99;77.87;52244.28;5046408;28;20646;-77
2021/03/28 08:22:15;;;;;;;536.43;187.10;;;;;;;-144.99;77.75;52256.50;5055467;28;20611;-78
2021/03/28 08:25:21;;;;;;;537.43;197.13;;;;;;;-144.99;76.60;52297.25;5055660;28;20799;-77
2021/03/28 08:28:08;;;;;;;542.03;200.20;;;;;;;-144.99;75.97;52256.50;5055999;28;20687;-78
2021/03/28 08:31:01;;;;;;;538.80;207.60;;;;;;;-144.99;76.41;52293.19;5059504;28;21181;-81
2021/03/28 08:34:00;;;;;;;543.03;206.00;;;;;;;-144.99;75.18;52295.22;5063076;28;20608;-78
2021/03/28 08:36:45;;;;;;;548.13;210.40;;;;;;;-144.99;75.54;52248.34;5055085;28;20693;-77
2021/03/28 08:39:37;;;;;;;541.93;213.17;;;;;;;-144.99;74.87;52242.22;5058797;28;20612;-78
2021/03/28 08:42:43;;;;;;;548.80;229.30;;;;;;;-144.99;73.89;52309.50;5051541;28;20627;-78
2021/03/28 08:45:52;;;;;;;548.47;239.30;;;;;;;-144.99;73.61;52272.81;5025388;28;20706;-79
2021/03/28 08:48:37;;;;;;;549.83;236.73;;;;;;;-144.99;73.46;52256.50;5045457;28;20622;-78
2021/03/28 08:51:26;;;;;;;553.77;258.20;;;;;;;-144.99;73.33;52303.38;5055847;28;21122;-77
2021/03/28 08:54:14;;;;;;;556.10;255.10;;;;;;;-144.99;74.58;52264.66;5050124;28;20726;-78
2021/03/28 08:57:01;;;;;;;557.50;247.73;;;;;;;-144.99;74.69;52278.91;5049369;28;20682;-78
2021/03/28 08:59:42;;;;;;;552.20;246.17;;;;;;;-144.99;74.13;52307.47;5056122;28;20623;-78
2021/03/28 09:02:30;;;;;;;547.73;247.33;;;;;;;-144.99;73.90;52301.34;5055415;28;20632;-78
2021/03/28 09:05:11;;;;;;;545.17;223.17;;;;;;;-144.99;73.91;52301.34;5056980;28;20690;-76
2021/03/28 09:07:42;;;;;;;554.10;247.83;;;;;;;-144.99;73.54;52285.03;5055679;28;20662;-80
2021/03/28 09:10:51;;;;;;;549.23;247.73;;;;;;;-144.99;72.95;52252.44;5059376;28;20670;-78
2021/03/28 09:13:37;;;;;;;553.13;260.83;;;;;;;-144.99;71.68;52276.88;5058866;28;20761;-78
2021/03/28 09:16:12;;;;;;;554.00;258.63;;;;;;;-144.99;71.53;52260.56;5059181;28;20730;-77
2021/03/28 09:18:56;;;;;;;555.33;280.13;;;;;;;-144.99;70.71;52240.19;5053471;28;20627;-79
2021/03/28 09:21:36;;;;;;;554.63;280.60;;;;;;;-144.99;70.05;52268.72;5055019;28;20694;-78
2021/03/28 09:24:17;;;;;;;557.47;290.57;;;;;;;-144.99;69.32;52246.31;5048387;28;20647;-78
2021/03/28 09:26:57;;;;;;;557.67;306.50;;;;;;;-144.99;68.77;52248.34;5053611;28;20607;-78
2021/03/28 09:29:34;;;;;;;563.77;316.90;;;;;;;-144.99;68.98;52225.94;5052246;28;20705;-76
2021/03/28 09:32:20;;;;;;;562.23;330.87;;;;;;;-144.99;68.61;52248.34;5052921;28;20621;-74
2021/03/28 09:34:56;;;;;;;557.67;306.47;;;;;;;-144.99;68.35;52244.28;5053738;28;20981;-78
2021/03/28 09:37:29;;;;;;;563.77;337.10;;;;;;;-144.99;66.70;52248.34;5052898;28;20607;-76
2021/03/28 09:40:08;;;;;;;565.17;342.07;;;;;;;-144.99;65.58;52234.09;5050085;28;20631;-77
2021/03/28 09:43:01;;;;;;;572.13;360.10;;;;;;;-144.99;64.81;52183.13;5054618;28;20627;-74
2021/03/28 09:45:43;;;;;;;568.17;357.27;;;;;;;-144.99;64.07;52232.03;5053701;28;20681;-75
2021/03/28 09:48:35;;;;;;;572.80;374.20;;;;;;;-144.99;61.75;52215.75;4354370;28;10000729;-74
2021/03/28 09:51:10;;;;;;;574.90;383.67;;;;;;;-144.99;61.78;52217.78;5048760;28;20205;-74
2021/03/28 09:54:00;;;;;;;580.73;405.43;;;;;;;-144.99;62.60;52252.44;5052558;28;20623;-76
2021/03/28 09:57:04;;;;;;;574.30;388.30;;;;;;;-144.99;63.70;52268.72;5050808;28;20604;-76
2021/03/28 10:00:10;;;;;;;573.00;380.13;;;;;;;-144.99;65.56;52295.22;5051337;28;21196;-76
2021/03/28 10:02:50;;;;;;;569.20;368.63;;;;;;;-144.99;66.86;52276.88;5054387;28;20642;-75
2021/03/28 10:05:24;;;;;;;568.43;371.97;;;;;;;-144.99;67.68;52287.06;5051247;28;20675;-75
2021/03/28 10:07:54;;;;;;;570.93;365.70;;;;;;;-144.99;68.34;52266.69;5041306;28;20690;-75
2021/03/28 10:10:41;;;;;;;569.27;351.87;;;;;;;-144.99;68.99;52305.41;5050245;28;20607;-75
2021/03/28 10:13:20;;;;;;;574.03;362.87;;;;;;;-144.99;68.61;52260.56;5050300;28;20607;-76
2021/03/28 10:15:57;;;;;;;572.27;373.13;;;;;;;-144.99;67.68;52248.34;5037494;28;20651;-77
2021/03/28 10:18:39;;;;;;;568.03;355.90;;;;;;;-144.99;66.50;52280.97;5046940;28;21181;-75
2021/03/28 10:21:22;;;;;;;571.83;363.57;;;;;;;-144.99;66.73;52287.06;5044050;28;20727;-75
2021/03/28 10:24:07;;;;;;;573.43;357.17;;;;;;;-144.99;66.73;52287.06;5050409;28;20619;-75
2021/03/28 10:26:53;;;;;;;566.73;344.60;;;;;;;-144.99;67.36;52309.50;5045689;28;20620;-75
2021/03/28 10:29:50;;;;;;;572.37;383.20;;;;;;;-144.99;66.79;52285.03;5052250;28;20638;-75
2021/03/28 10:32:26;;;;;;;569.73;371.17;;;;;;;-144.99;67.27;52297.25;5047664;28;20696;-75
2021/03/28 10:35:16;;;;;;;571.83;365.77;;;;;;;-144.99;67.63;52268.72;5052167;28;20673;-80
2021/03/28 10:38:11;;;;;;;573.13;375.57;;;;;;;-144.99;68.90;52295.22;5049970;28;20821;-75
2021/03/28 10:40:43;;;;;;;569.27;350.83;;;;;;;-144.99;68.83;52297.25;5050483;28;21009;-75
2021/03/28 10:43:26;;;;;;;567.83;351.23;;;;;;;-144.99;69.06;52276.88;5050427;28;20698;-76
2021/03/28 10:46:36;;;;;;;565.63;338.53;;;;;;;-144.99;68.49;52276.88;5049696;28;20735;-77
2021/03/28 10:49:24;;;;;;;569.67;348.27;;;;;;;-144.99;67.67;52268.72;5042184;28;20616;-75
2021/03/28 10:52:49;;;;;;;573.37;363.37;;;;;;;-144.99;67.36;52295.22;5049451;28;20615;-76
2021/03/28 10:56:01;;;;;;;564.50;335.30;;;;;;;-144.99;68.02;52289.13;5044556;28;20678;-75
2021/03/28 10:59:04;;;;;;;564.23;344.97;;;;;;;-144.99;68.13;52268.72;5046933;28;20635;-75
2021/03/28 11:02:01;;;;;;;560.73;324.03;;;;;;;-144.99;67.87;52305.41;5044597;28;20627;-80
2021/03/28 11:05:08;;;;;;;563.17;328.33;;;;;;;-144.99;67.71;52321.72;5047572;28;20659;-75
2021/03/28 11:08:05;;;;;;;562.43;339.30;;;;;;;-144.99;67.38;52240.19;5048956;28;20966;-76
2021/03/28 11:10:59;;;;;;;564.13;343.17;;;;;;;-144.99;67.55;52276.88;5049446;28;20861;-75
2021/03/28 11:13:48;;;;;;;563.27;332.70;;;;;;;-144.99;67.54;52285.03;5055431;28;20627;-77
2021/03/28 11:16:24;;;;;;;562.57;339.03;;;;;;;-144.99;67.98;52268.72;5050330;28;20639;-77
2021/03/28 11:19:42;;;;;;;563.00;343.97;;;;;;;-144.99;68.82;52301.34;5047198;28;20682;-76
2021/03/28 11:22:16;;;;;;;564.30;337.00;;;;;;;-144.99;68.45;52289.13;4978340;28;20695;-80
2021/03/28 11:25:07;;;;;;;560.83;334.37;;;;;;;-144.99;68.51;52325.81;4979821;28;21159;-77
2021/03/28 11:28:14;;;;;;;560.87;326.23;;;;;;;-144.99;68.70;52293.19;5041341;28;20636;-77
2021/03/28 11:30:43;;;;;;;562.07;338.97;;;;;;;-144.99;69.00;52297.25;5030705;28;20635;-74
2021/03/28 11:33:26;;;;;;;558.70;317.97;;;;;;;-144.99;69.26;52309.50;5048197;28;20632;-79
2021/03/28 11:36:15;;;;;;;559.70;327.57;;;;;;;-144.99;69.12;52280.97;5041851;28;21209;-79
2021/03/28 11:39:00;;;;;;;559.23;327.63;;;;;;;-144.99;68.66;52272.81;5047827;28;20628;-76
2021/03/28 11:41:48;;;;;;;564.67;336.13;;;;;;;-144.99;68.51;52317.66;5048023;28;20636;-77
2021/03/28 11:44:42;;;;;;;555.70;310.63;;;;;;;-144.99;68.32;52280.97;5049646;28;20659;-76
2021/03/28 11:47:27;;;;;;;558.67;319.17;;;;;;;-144.99;68.17;52268.72;4996841;28;20664;-76
2021/03/28 11:50:03;;;;;;;559.47;336.70;;;;;;;-144.99;67.95;52256.50;5042499;28;20608;-75
2021/03/28 11:52:48;;;;;;;562.87;331.57;;;;;;;-144.99;67.82;52232.03;5050254;28;20703;-76
2021/03/28 11:55:36;;;;;;;558.90;326.83;;;;;;;-144.99;67.64;52301.34;5049201;28;20652;-78
2021/03/28 11:58:09;;;;;;;558.80;337.33;;;;;;;-144.99;67.63;52289.13;5038380;28;20644;-81
2021/03/28 12:00:43;;;;;;;554.83;324.20;;;;;;;-144.99;69.68;52272.81;5056404;28;20624;-77
2021/03/28 12:03:31;;;;;;;557.23;328.77;;;;;;;-144.99;70.62;52295.22;5049858;28;20627;-76
2021/03/28 12:05:59;;;;;;;559.27;333.43;;;;;;;-144.99;71.51;52315.59;5032746;28;21086;-79
2021/03/28 12:08:29;;;;;;;562.73;335.77;;;;;;;-144.99;74.07;52309.50;5058313;28;20682;-77
2021/03/28 12:10:59;;;;;;;561.10;327.50;;;;;;;-144.99;75.62;52289.13;5049348;28;21312;-77
2021/03/28 12:13:36;;;;;;;562.33;339.20;;;;;;;-144.99;77.41;52297.25;5049455;28;20723;-77